sensor_id;sensor_type;location;lat;lon;timestamp;pressure;altitude;pressure_sealevel;temperature;humidity
47430;BME280;33181;49.246;7.372;2022-08-23T00:01:45;98602.41;;;20.41;59.91
47430;BME280;33181;49.246;7.372;2022-08-23T00:04:22;98605.84;;;20.34;60.25
47430;BME280;33181;49.246;7.372;2022-08-23T00:06:51;98605.00;;;20.34;60.30
47430;BME280;33181;49.246;7.372;2022-08-23T00:09:20;98605.78;;;20.28;60.60
47430;BME280;33181;49.246;7.372;2022-08-23T00:12:16;98611.09;;;20.28;60.48
47430;BME280;33181;49.246;7.372;2022-08-23T00:14:50;98612.75;;;20.29;60.33
47430;BME280;33181;49.246;7.372;2022-08-23T00:17:17;98614.59;;;20.28;60.32
47430;BME280;33181;49.246;7.372;2022-08-23T00:19:43;98608.09;;;20.16;60.52
47430;BME280;33181;49.246;7.372;2022-08-23T00:22:10;98612.13;;;19.90;61.39
47430;BME280;33181;49.246;7.372;2022-08-23T00:24:37;98607.75;;;19.68;61.83
47430;BME280;33181;49.246;7.372;2022-08-23T00:27:12;98611.75;;;19.34;63.45
47430;BME280;33181;49.246;7.372;2022-08-23T00:29:48;98612.97;;;19.17;64.33
47430;BME280;33181;49.246;7.372;2022-08-23T00:32:35;98609.44;;;19.16;64.21
47430;BME280;33181;49.246;7.372;2022-08-23T00:35:03;98613.16;;;19.30;63.74
47430;BME280;33181;49.246;7.372;2022-08-23T00:37:30;98606.72;;;19.39;63.34
47430;BME280;33181;49.246;7.372;2022-08-23T00:39:58;98607.25;;;19.50;63.10
47430;BME280;33181;49.246;7.372;2022-08-23T00:42:46;98611.31;;;19.45;62.99
47430;BME280;33181;49.246;7.372;2022-08-23T00:46:04;98611.78;;;19.49;62.81
47430;BME280;33181;49.246;7.372;2022-08-23T00:48:54;98621.50;;;19.57;62.29
47430;BME280;33181;49.246;7.372;2022-08-23T00:51:35;98618.38;;;19.53;62.47
47430;BME280;33181;49.246;7.372;2022-08-23T00:54:03;98629.03;;;19.53;62.43
47430;BME280;33181;49.246;7.372;2022-08-23T00:56:33;98622.81;;;19.46;62.36
47430;BME280;33181;49.246;7.372;2022-08-23T00:58:59;98626.75;;;19.50;62.41
47430;BME280;33181;49.246;7.372;2022-08-23T01:01:25;98629.03;;;19.53;62.21
47430;BME280;33181;49.246;7.372;2022-08-23T01:03:56;98626.19;;;19.55;62.13
47430;BME280;33181;49.246;7.372;2022-08-23T01:06:36;98624.72;;;19.52;61.92
47430;BME280;33181;49.246;7.372;2022-08-23T01:09:14;98621.31;;;19.43;62.08
47430;BME280;33181;49.246;7.372;2022-08-23T01:12:08;98620.28;;;19.15;62.72
47430;BME280;33181;49.246;7.372;2022-08-23T01:14:48;98625.88;;;19.05;62.90
47430;BME280;33181;49.246;7.372;2022-08-23T01:17:26;98630.84;;;19.08;63.32
47430;BME280;33181;49.246;7.372;2022-08-23T01:20:03;98620.66;;;19.12;62.92
47430;BME280;33181;49.246;7.372;2022-08-23T01:22:48;98633.41;;;19.16;62.85
47430;BME280;33181;49.246;7.372;2022-08-23T01:25:20;98627.81;;;19.11;62.96
47430;BME280;33181;49.246;7.372;2022-08-23T01:27:49;98637.66;;;19.11;62.92
47430;BME280;33181;49.246;7.372;2022-08-23T01:30:21;98637.81;;;19.09;62.99
47430;BME280;33181;49.246;7.372;2022-08-23T01:32:54;98635.34;;;19.08;63.08
47430;BME280;33181;49.246;7.372;2022-08-23T01:35:39;98637.16;;;19.07;62.89
47430;BME280;33181;49.246;7.372;2022-08-23T01:38:07;98644.16;;;19.08;62.95
47430;BME280;33181;49.246;7.372;2022-08-23T01:40:35;98643.69;;;19.05;62.84
47430;BME280;33181;49.246;7.372;2022-08-23T01:43:02;98645.91;;;19.01;62.95
47430;BME280;33181;49.246;7.372;2022-08-23T01:45:29;98644.06;;;19.02;62.97
47430;BME280;33181;49.246;7.372;2022-08-23T01:47:55;98642.75;;;18.97;63.11
47430;BME280;33181;49.246;7.372;2022-08-23T01:50:23;98651.06;;;18.80;63.76
47430;BME280;33181;49.246;7.372;2022-08-23T01:52:49;98644.00;;;18.64;64.13
47430;BME280;33181;49.246;7.372;2022-08-23T01:55:16;98636.53;;;18.36;65.23
47430;BME280;33181;49.246;7.372;2022-08-23T01:57:44;98635.63;;;18.21;65.63
47430;BME280;33181;49.246;7.372;2022-08-23T02:00:11;98636.44;;;17.98;66.55
47430;BME280;33181;49.246;7.372;2022-08-23T02:02:37;98638.97;;;17.92;67.07
47430;BME280;33181;49.246;7.372;2022-08-23T02:05:05;98638.28;;;17.98;66.59
47430;BME280;33181;49.246;7.372;2022-08-23T02:07:31;98633.78;;;17.98;66.53
47430;BME280;33181;49.246;7.372;2022-08-23T02:09:59;98638.72;;;18.10;66.36
47430;BME280;33181;49.246;7.372;2022-08-23T02:12:25;98637.81;;;18.17;65.83
47430;BME280;33181;49.246;7.372;2022-08-23T02:14:51;98640.25;;;18.27;65.85
47430;BME280;33181;49.246;7.372;2022-08-23T02:17:17;98644.56;;;18.28;65.62
47430;BME280;33181;49.246;7.372;2022-08-23T02:19:44;98645.53;;;18.35;65.33
47430;BME280;33181;49.246;7.372;2022-08-23T02:22:10;98644.34;;;18.38;65.21
47430;BME280;33181;49.246;7.372;2022-08-23T02:24:43;98643.16;;;18.40;65.03
47430;BME280;33181;49.246;7.372;2022-08-23T02:27:11;98643.38;;;18.30;65.27
47430;BME280;33181;49.246;7.372;2022-08-23T02:29:41;98644.03;;;18.10;65.84
47430;BME280;33181;49.246;7.372;2022-08-23T02:32:09;98644.38;;;18.06;66.01
47430;BME280;33181;49.246;7.372;2022-08-23T02:34:36;98646.03;;;18.08;65.84
47430;BME280;33181;49.246;7.372;2022-08-23T02:37:02;98652.47;;;18.13;65.53
47430;BME280;33181;49.246;7.372;2022-08-23T02:39:28;98655.97;;;18.14;65.56
47430;BME280;33181;49.246;7.372;2022-08-23T02:41:54;98651.66;;;18.13;65.62
47430;BME280;33181;49.246;7.372;2022-08-23T02:44:20;98653.94;;;18.16;65.54
47430;BME280;33181;49.246;7.372;2022-08-23T02:46:46;98662.69;;;18.24;65.29
47430;BME280;33181;49.246;7.372;2022-08-23T02:49:13;98665.84;;;18.28;65.05
47430;BME280;33181;49.246;7.372;2022-08-23T02:51:39;98656.88;;;18.29;64.80
47430;BME280;33181;49.246;7.372;2022-08-23T02:54:06;98656.69;;;18.30;64.83
47430;BME280;33181;49.246;7.372;2022-08-23T02:56:33;98655.88;;;18.30;64.55
47430;BME280;33181;49.246;7.372;2022-08-23T02:58:59;98662.34;;;18.27;64.66
47430;BME280;33181;49.246;7.372;2022-08-23T03:01:29;98664.75;;;18.14;65.00
47430;BME280;33181;49.246;7.372;2022-08-23T03:03:57;98672.56;;;17.85;65.99
47430;BME280;33181;49.246;7.372;2022-08-23T03:06:25;98671.03;;;17.74;66.23
47430;BME280;33181;49.246;7.372;2022-08-23T03:08:53;98665.09;;;17.64;66.60
47430;BME280;33181;49.246;7.372;2022-08-23T03:11:21;98666.59;;;17.58;66.84
47430;BME280;33181;49.246;7.372;2022-08-23T03:13:49;98669.13;;;17.59;66.97
47430;BME280;33181;49.246;7.372;2022-08-23T03:16:16;98681.72;;;17.66;66.78
47430;BME280;33181;49.246;7.372;2022-08-23T03:18:42;98684.66;;;17.71;66.51
47430;BME280;33181;49.246;7.372;2022-08-23T03:21:09;98681.72;;;17.66;66.46
47430;BME280;33181;49.246;7.372;2022-08-23T03:23:35;98677.75;;;17.53;66.92
47430;BME280;33181;49.246;7.372;2022-08-23T03:26:03;98681.72;;;17.49;66.84
47430;BME280;33181;49.246;7.372;2022-08-23T03:28:29;98678.09;;;17.50;66.87
47430;BME280;33181;49.246;7.372;2022-08-23T03:30:57;98677.97;;;17.35;67.22
47430;BME280;33181;49.246;7.372;2022-08-23T03:33:23;98679.31;;;17.31;67.41
47430;BME280;33181;49.246;7.372;2022-08-23T03:35:49;98688.25;;;17.38;67.22
47430;BME280;33181;49.246;7.372;2022-08-23T03:38:16;98690.56;;;17.42;67.08
47430;BME280;33181;49.246;7.372;2022-08-23T03:40:43;98685.41;;;17.40;67.17
47430;BME280;33181;49.246;7.372;2022-08-23T03:43:09;98687.06;;;17.41;67.08
47430;BME280;33181;49.246;7.372;2022-08-23T03:45:35;98683.13;;;17.37;66.83
47430;BME280;33181;49.246;7.372;2022-08-23T03:48:01;98692.91;;;17.20;67.62
47430;BME280;33181;49.246;7.372;2022-08-23T03:50:27;98688.78;;;17.01;68.45
47430;BME280;33181;49.246;7.372;2022-08-23T03:52:52;98693.75;;;16.88;68.78
47430;BME280;33181;49.246;7.372;2022-08-23T03:55:18;98691.09;;;16.80;68.99
47430;BME280;33181;49.246;7.372;2022-08-23T03:57:44;98701.69;;;16.80;69.20
47430;BME280;33181;49.246;7.372;2022-08-23T04:00:12;98702.50;;;16.72;69.46
47430;BME280;33181;49.246;7.372;2022-08-23T04:02:38;98710.31;;;16.82;69.09
47430;BME280;33181;49.246;7.372;2022-08-23T04:05:05;98708.66;;;16.89;68.88
47430;BME280;33181;49.246;7.372;2022-08-23T04:07:36;98711.66;;;16.94;68.58
47430;BME280;33181;49.246;7.372;2022-08-23T04:10:06;98710.84;;;16.94;68.43
47430;BME280;33181;49.246;7.372;2022-08-23T04:12:32;98711.66;;;16.86;68.66
47430;BME280;33181;49.246;7.372;2022-08-23T04:14:58;98709.16;;;16.76;68.76
47430;BME280;33181;49.246;7.372;2022-08-23T04:17:24;98723.72;;;16.72;69.04
47430;BME280;33181;49.246;7.372;2022-08-23T04:19:50;98719.06;;;16.66;69.28
47430;BME280;33181;49.246;7.372;2022-08-23T04:22:18;98725.84;;;16.60;69.43
47430;BME280;33181;49.246;7.372;2022-08-23T04:24:45;98724.84;;;16.53;69.70
47430;BME280;33181;49.246;7.372;2022-08-23T04:27:12;98728.13;;;16.47;69.82
47430;BME280;33181;49.246;7.372;2022-08-23T04:29:38;98730.44;;;16.42;70.02
47430;BME280;33181;49.246;7.372;2022-08-23T04:32:07;98737.56;;;16.41;70.16
47430;BME280;33181;49.246;7.372;2022-08-23T04:34:35;98740.25;;;16.50;70.15
47430;BME280;33181;49.246;7.372;2022-08-23T04:37:01;98740.25;;;16.58;69.54
47430;BME280;33181;49.246;7.372;2022-08-23T04:39:27;98741.75;;;16.60;69.50
47430;BME280;33181;49.246;7.372;2022-08-23T04:41:53;98743.44;;;16.61;69.32
47430;BME280;33181;49.246;7.372;2022-08-23T04:44:37;98740.75;;;16.53;70.05
47430;BME280;33181;49.246;7.372;2022-08-23T04:47:03;98749.22;;;16.57;69.84
47430;BME280;33181;49.246;7.372;2022-08-23T04:49:29;98747.75;;;16.62;69.58
47430;BME280;33181;49.246;7.372;2022-08-23T04:51:55;98753.03;;;16.71;69.41
47430;BME280;33181;49.246;7.372;2022-08-23T04:54:21;98747.97;;;16.77;69.18
47430;BME280;33181;49.246;7.372;2022-08-23T04:56:47;98758.44;;;16.87;68.77
47430;BME280;33181;49.246;7.372;2022-08-23T04:59:13;98759.44;;;16.94;68.67
47430;BME280;33181;49.246;7.372;2022-08-23T05:01:39;98754.63;;;16.98;68.47
47430;BME280;33181;49.246;7.372;2022-08-23T05:04:05;98763.09;;;17.18;67.66
47430;BME280;33181;49.246;7.372;2022-08-23T05:06:32;98761.59;;;17.07;67.83
47430;BME280;33181;49.246;7.372;2022-08-23T05:08:58;98764.59;;;17.28;67.51
47430;BME280;33181;49.246;7.372;2022-08-23T05:11:24;98767.88;;;17.55;67.15
47430;BME280;33181;49.246;7.372;2022-08-23T05:13:50;98767.34;;;17.84;66.22
47430;BME280;33181;49.246;7.372;2022-08-23T05:16:16;98780.84;;;18.30;64.72
47430;BME280;33181;49.246;7.372;2022-08-23T05:18:42;98782.72;;;18.92;63.21
47430;BME280;33181;49.246;7.372;2022-08-23T05:21:17;98790.25;;;19.72;60.53
47430;BME280;33181;49.246;7.372;2022-08-23T05:23:43;98785.78;;;20.47;58.69
47430;BME280;33181;49.246;7.372;2022-08-23T05:26:10;98797.41;;;21.12;56.01
47430;BME280;33181;49.246;7.372;2022-08-23T05:28:38;98797.59;;;21.53;55.26
47430;BME280;33181;49.246;7.372;2022-08-23T05:31:10;98792.16;;;21.96;53.90
47430;BME280;33181;49.246;7.372;2022-08-23T05:33:37;98791.44;;;22.09;52.61
47430;BME280;33181;49.246;7.372;2022-08-23T05:36:06;98796.66;;;21.89;53.06
47430;BME280;33181;49.246;7.372;2022-08-23T05:38:32;98795.78;;;21.82;53.47
47430;BME280;33181;49.246;7.372;2022-08-23T05:40:59;98794.97;;;21.88;53.58
47430;BME280;33181;49.246;7.372;2022-08-23T05:43:27;98797.72;;;21.94;53.12
47430;BME280;33181;49.246;7.372;2022-08-23T05:46:10;98796.28;;;21.92;53.10
47430;BME280;33181;49.246;7.372;2022-08-23T05:48:37;98793.38;;;21.93;53.15
47430;BME280;33181;49.246;7.372;2022-08-23T05:53:40;98791.53;;;21.94;53.41
47430;BME280;33181;49.246;7.372;2022-08-23T05:56:30;98797.16;;;22.06;52.97
47430;BME280;33181;49.246;7.372;2022-08-23T05:58:59;98805.63;;;22.44;52.00
47430;BME280;33181;49.246;7.372;2022-08-23T06:01:27;98815.19;;;22.66;51.78
47430;BME280;33181;49.246;7.372;2022-08-23T06:03:53;98813.31;;;22.95;50.73
47430;BME280;33181;49.246;7.372;2022-08-23T06:06:19;98808.16;;;23.13;50.33
47430;BME280;33181;49.246;7.372;2022-08-23T06:08:46;98810.03;;;23.13;50.63
47430;BME280;33181;49.246;7.372;2022-08-23T06:11:15;98813.34;;;23.22;49.99
47430;BME280;33181;49.246;7.372;2022-08-23T06:13:47;98816.25;;;23.27;50.28
47430;BME280;33181;49.246;7.372;2022-08-23T06:16:17;98812.34;;;23.36;49.78
47430;BME280;33181;49.246;7.372;2022-08-23T06:18:44;98816.03;;;23.22;49.95
47430;BME280;33181;49.246;7.372;2022-08-23T06:21:13;98818.09;;;23.26;50.26
47430;BME280;33181;49.246;7.372;2022-08-23T06:23:40;98824.06;;;23.28;50.40
47430;BME280;33181;49.246;7.372;2022-08-23T06:26:21;98831.13;;;23.49;49.62
47430;BME280;33181;49.246;7.372;2022-08-23T06:28:50;98836.72;;;23.74;49.73
47430;BME280;33181;49.246;7.372;2022-08-23T06:31:17;98832.34;;;24.13;48.84
47430;BME280;33181;49.246;7.372;2022-08-23T06:34:03;98838.09;;;24.50;47.92
47430;BME280;33181;49.246;7.372;2022-08-23T06:36:29;98833.19;;;24.85;47.36
47430;BME280;33181;49.246;7.372;2022-08-23T06:38:55;98841.75;;;25.14;46.83
47430;BME280;33181;49.246;7.372;2022-08-23T06:41:21;98838.78;;;25.29;46.21
47430;BME280;33181;49.246;7.372;2022-08-23T06:43:47;98836.84;;;24.97;46.50
47430;BME280;33181;49.246;7.372;2022-08-23T06:46:23;98838.06;;;25.02;46.61
47430;BME280;33181;49.246;7.372;2022-08-23T06:48:50;98837.44;;;25.13;47.29
47430;BME280;33181;49.246;7.372;2022-08-23T06:51:29;98841.19;;;24.98;46.83
47430;BME280;33181;49.246;7.372;2022-08-23T06:53:59;98843.50;;;24.88;47.30
47430;BME280;33181;49.246;7.372;2022-08-23T06:56:26;98850.84;;;24.61;47.97
47430;BME280;33181;49.246;7.372;2022-08-23T06:58:53;98845.75;;;24.26;48.68
47430;BME280;33181;49.246;7.372;2022-08-23T07:01:42;98848.00;;;23.30;50.69
47430;BME280;33181;49.246;7.372;2022-08-23T07:04:12;98847.88;;;22.42;53.01
47430;BME280;33181;49.246;7.372;2022-08-23T07:06:38;98850.59;;;22.20;53.46
47430;BME280;33181;49.246;7.372;2022-08-23T07:09:04;98856.63;;;22.01;53.99
47430;BME280;33181;49.246;7.372;2022-08-23T07:11:30;98857.16;;;21.90;54.20
47430;BME280;33181;49.246;7.372;2022-08-23T07:13:59;98856.22;;;21.76;54.40
47430;BME280;33181;49.246;7.372;2022-08-23T07:16:36;98856.22;;;21.76;54.78
47430;BME280;33181;49.246;7.372;2022-08-23T07:19:03;98858.19;;;21.89;54.80
47430;BME280;33181;49.246;7.372;2022-08-23T07:21:29;98857.22;;;21.75;54.73
47430;BME280;33181;49.246;7.372;2022-08-23T07:23:55;98859.47;;;21.71;54.72
47430;BME280;33181;49.246;7.372;2022-08-23T07:26:22;98853.13;;;21.72;55.16
47430;BME280;33181;49.246;7.372;2022-08-23T07:28:49;98860.06;;;21.67;55.29
47430;BME280;33181;49.246;7.372;2022-08-23T07:33:45;98851.72;;;22.33;54.71
47430;BME280;33181;49.246;7.372;2022-08-23T07:36:15;98853.66;;;22.94;53.74
47430;BME280;33181;49.246;7.372;2022-08-23T07:38:43;98850.72;;;23.50;52.46
47430;BME280;33181;49.246;7.372;2022-08-23T07:41:10;98861.47;;;23.83;51.46
47430;BME280;33181;49.246;7.372;2022-08-23T07:43:37;98857.16;;;24.09;50.65
47430;BME280;33181;49.246;7.372;2022-08-23T07:46:03;98858.31;;;24.52;50.46
47430;BME280;33181;49.246;7.372;2022-08-23T07:48:30;98857.66;;;25.15;49.61
47430;BME280;33181;49.246;7.372;2022-08-23T07:50:59;98855.16;;;25.52;48.37
47430;BME280;33181;49.246;7.372;2022-08-23T07:53:26;98856.06;;;26.21;47.08
47430;BME280;33181;49.246;7.372;2022-08-23T07:55:53;98850.91;;;26.93;45.65
47430;BME280;33181;49.246;7.372;2022-08-23T07:58:20;98860.72;;;27.36;44.58
47430;BME280;33181;49.246;7.372;2022-08-23T08:00:47;98862.78;;;27.64;44.11
47430;BME280;33181;49.246;7.372;2022-08-23T08:03:13;98865.22;;;27.84;43.53
47430;BME280;33181;49.246;7.372;2022-08-23T08:05:39;98868.03;;;28.13;43.13
47430;BME280;33181;49.246;7.372;2022-08-23T08:08:07;98876.38;;;28.58;42.98
47430;BME280;33181;49.246;7.372;2022-08-23T08:10:36;98878.25;;;28.58;42.83
47430;BME280;33181;49.246;7.372;2022-08-23T08:13:03;98875.50;;;28.81;41.97
47430;BME280;33181;49.246;7.372;2022-08-23T08:15:29;98873.16;;;28.85;41.72
47430;BME280;33181;49.246;7.372;2022-08-23T08:17:55;98878.28;;;28.98;41.67
47430;BME280;33181;49.246;7.372;2022-08-23T08:20:21;98880.25;;;29.15;41.07
47430;BME280;33181;49.246;7.372;2022-08-23T08:22:48;98876.88;;;28.96;40.85
47430;BME280;33181;49.246;7.372;2022-08-23T08:25:15;98884.03;;;29.14;41.22
47430;BME280;33181;49.246;7.372;2022-08-23T08:27:41;98880.22;;;29.43;40.52
47430;BME280;33181;49.246;7.372;2022-08-23T08:30:09;98871.47;;;29.53;40.24
47430;BME280;33181;49.246;7.372;2022-08-23T08:32:35;98874.34;;;29.18;40.93
47430;BME280;33181;49.246;7.372;2022-08-23T08:35:02;98875.63;;;29.44;40.25
47430;BME280;33181;49.246;7.372;2022-08-23T08:37:28;98867.56;;;29.94;39.84
47430;BME280;33181;49.246;7.372;2022-08-23T08:39:54;98874.78;;;30.39;38.76
47430;BME280;33181;49.246;7.372;2022-08-23T08:43:06;98868.53;;;30.78;37.69
47430;BME280;33181;49.246;7.372;2022-08-23T08:46:04;98869.72;;;30.65;37.80
47430;BME280;33181;49.246;7.372;2022-08-23T08:48:41;98874.34;;;30.47;37.99
47430;BME280;33181;49.246;7.372;2022-08-23T08:52:16;98880.66;;;30.53;38.21
47430;BME280;33181;49.246;7.372;2022-08-23T08:54:26;98884.97;;;30.32;38.22
47430;BME280;33181;49.246;7.372;2022-08-23T08:56:56;98879.22;;;30.12;38.01
47430;BME280;33181;49.246;7.372;2022-08-23T08:59:46;98875.63;;;29.89;38.91
47430;BME280;33181;49.246;7.372;2022-08-23T09:02:19;98871.59;;;30.25;39.04
47430;BME280;33181;49.246;7.372;2022-08-23T09:04:46;98874.13;;;30.71;38.21
47430;BME280;33181;49.246;7.372;2022-08-23T09:10:20;98876.22;;;31.62;36.64
47430;BME280;33181;49.246;7.372;2022-08-23T09:13:25;98876.56;;;31.98;36.05
47430;BME280;33181;49.246;7.372;2022-08-23T09:18:42;98868.38;;;32.35;35.36
47430;BME280;33181;49.246;7.372;2022-08-23T09:21:08;98866.91;;;32.17;35.49
47430;BME280;33181;49.246;7.372;2022-08-23T09:23:42;98865.44;;;32.42;35.24
47430;BME280;33181;49.246;7.372;2022-08-23T09:26:34;98863.22;;;32.86;34.73
47430;BME280;33181;49.246;7.372;2022-08-23T09:31:54;98854.16;;;32.75;34.11
47430;BME280;33181;49.246;7.372;2022-08-23T09:37:19;98859.53;;;33.23;34.35
47430;BME280;33181;49.246;7.372;2022-08-23T09:40:15;98856.00;;;33.28;33.93
47430;BME280;33181;49.246;7.372;2022-08-23T09:42:40;98859.53;;;33.23;34.02
47430;BME280;33181;49.246;7.372;2022-08-23T09:45:34;98859.00;;;33.36;33.66
47430;BME280;33181;49.246;7.372;2022-08-23T09:48:01;98854.94;;;33.39;33.56
47430;BME280;33181;49.246;7.372;2022-08-23T09:50:38;98856.56;;;33.40;33.37
47430;BME280;33181;49.246;7.372;2022-08-23T09:53:10;98854.88;;;33.18;33.24
47430;BME280;33181;49.246;7.372;2022-08-23T09:55:47;98851.91;;;33.30;34.13
47430;BME280;33181;49.246;7.372;2022-08-23T09:58:29;98847.91;;;33.74;33.46
47430;BME280;33181;49.246;7.372;2022-08-23T10:01:17;98842.41;;;34.20;32.71
47430;BME280;33181;49.246;7.372;2022-08-23T10:03:44;98853.06;;;34.06;32.70
47430;BME280;33181;49.246;7.372;2022-08-23T10:06:14;98839.66;;;34.20;32.09
47430;BME280;33181;49.246;7.372;2022-08-23T10:08:56;98849.41;;;34.51;31.84
47430;BME280;33181;49.246;7.372;2022-08-23T10:11:28;98844.22;;;34.65;31.53
47430;BME280;33181;49.246;7.372;2022-08-23T10:13:55;98850.53;;;34.55;31.41
47430;BME280;33181;49.246;7.372;2022-08-23T10:24:48;98852.19;;;34.31;30.15
47430;BME280;33181;49.246;7.372;2022-08-23T10:27:55;98841.00;;;34.32;30.46
47430;BME280;33181;49.246;7.372;2022-08-23T10:39:24;98841.25;;;34.36;30.47
47430;BME280;33181;49.246;7.372;2022-08-23T10:42:12;98829.97;;;34.73;30.43
47430;BME280;33181;49.246;7.372;2022-08-23T10:45:04;98834.78;;;34.92;30.36
47430;BME280;33181;49.246;7.372;2022-08-23T10:48:20;98833.25;;;34.70;30.08
47430;BME280;33181;49.246;7.372;2022-08-23T10:50:52;98827.16;;;34.83;30.05
47430;BME280;33181;49.246;7.372;2022-08-23T10:53:19;98822.75;;;34.93;29.10
47430;BME280;33181;49.246;7.372;2022-08-23T10:55:51;98820.44;;;35.20;29.45
47430;BME280;33181;49.246;7.372;2022-08-23T10:58:41;98822.75;;;35.37;29.26
47430;BME280;33181;49.246;7.372;2022-08-23T11:01:08;98811.69;;;34.69;28.87
47430;BME280;33181;49.246;7.372;2022-08-23T11:03:59;98814.06;;;34.10;29.46
47430;BME280;33181;49.246;7.372;2022-08-23T11:14:40;98802.34;;;33.43;28.94
47430;BME280;33181;49.246;7.372;2022-08-23T11:17:12;98803.44;;;33.78;29.12
47430;BME280;33181;49.246;7.372;2022-08-23T11:19:59;98808.88;;;34.09;28.12
47430;BME280;33181;49.246;7.372;2022-08-23T11:22:32;98802.50;;;34.44;28.48
47430;BME280;33181;49.246;7.372;2022-08-23T11:27:42;98798.94;;;35.09;27.77
47430;BME280;33181;49.246;7.372;2022-08-23T11:30:46;98799.50;;;35.45;27.81
47430;BME280;33181;49.246;7.372;2022-08-23T11:33:15;98797.53;;;35.50;27.60
47430;BME280;33181;49.246;7.372;2022-08-23T11:36:20;98792.00;;;35.90;27.17
47430;BME280;33181;49.246;7.372;2022-08-23T11:43:46;98799.78;;;34.99;28.30
47430;BME280;33181;49.246;7.372;2022-08-23T11:46:27;98788.84;;;34.99;27.86
47430;BME280;33181;49.246;7.372;2022-08-23T11:49:34;98789.41;;;35.40;27.63
47430;BME280;33181;49.246;7.372;2022-08-23T11:52:48;98781.38;;;34.05;29.27
47430;BME280;33181;49.246;7.372;2022-08-23T12:01:10;98781.72;;;34.58;28.92
47430;BME280;33181;49.246;7.372;2022-08-23T12:04:00;98777.44;;;34.37;29.01
47430;BME280;33181;49.246;7.372;2022-08-23T12:06:45;98772.31;;;34.80;28.84
47430;BME280;33181;49.246;7.372;2022-08-23T12:12:27;98781.13;;;35.50;27.05
47430;BME280;33181;49.246;7.372;2022-08-23T12:14:58;98775.75;;;35.40;27.20
47430;BME280;33181;49.246;7.372;2022-08-23T12:19:57;98769.66;;;35.54;26.58
47430;BME280;33181;49.246;7.372;2022-08-23T12:22:28;98771.41;;;35.34;27.07
47430;BME280;33181;49.246;7.372;2022-08-23T12:25:02;98769.22;;;35.36;27.12
47430;BME280;33181;49.246;7.372;2022-08-23T12:30:23;98765.34;;;35.42;26.88
47430;BME280;33181;49.246;7.372;2022-08-23T12:36:19;98761.50;;;35.78;27.23
47430;BME280;33181;49.246;7.372;2022-08-23T12:38:57;98760.56;;;34.85;28.09
47430;BME280;33181;49.246;7.372;2022-08-23T12:41:57;98769.31;;;35.26;27.56
47430;BME280;33181;49.246;7.372;2022-08-23T12:44:29;98759.38;;;35.06;27.60
47430;BME280;33181;49.246;7.372;2022-08-23T12:46:56;98760.41;;;35.10;28.02
47430;BME280;33181;49.246;7.372;2022-08-23T12:49:32;98762.25;;;34.75;27.93
47430;BME280;33181;49.246;7.372;2022-08-23T12:52:02;98762.25;;;34.75;27.40
47430;BME280;33181;49.246;7.372;2022-08-23T12:54:44;98761.22;;;34.66;27.63
47430;BME280;33181;49.246;7.372;2022-08-23T12:57:19;98754.25;;;34.89;27.29
47430;BME280;33181;49.246;7.372;2022-08-23T13:02:32;98747.94;;;34.94;27.76
47430;BME280;33181;49.246;7.372;2022-08-23T13:05:11;98750.56;;;35.14;27.66
47430;BME280;33181;49.246;7.372;2022-08-23T13:07:39;98753.53;;;34.73;27.92
47430;BME280;33181;49.246;7.372;2022-08-23T13:10:07;98747.09;;;34.98;27.69
47430;BME280;33181;49.246;7.372;2022-08-23T13:12:35;98749.84;;;35.33;27.35
47430;BME280;33181;49.246;7.372;2022-08-23T13:15:01;98753.41;;;35.33;27.08
47430;BME280;33181;49.246;7.372;2022-08-23T13:17:36;98753.88;;;35.40;27.28
47430;BME280;33181;49.246;7.372;2022-08-23T13:20:20;98754.22;;;35.34;26.98
47430;BME280;33181;49.246;7.372;2022-08-23T13:23:05;98748.25;;;35.32;27.13
47430;BME280;33181;49.246;7.372;2022-08-23T13:25:40;98749.19;;;35.46;26.70
47430;BME280;33181;49.246;7.372;2022-08-23T13:28:28;98751.91;;;35.46;26.76
47430;BME280;33181;49.246;7.372;2022-08-23T13:31:05;98744.66;;;35.65;27.17
47430;BME280;33181;49.246;7.372;2022-08-23T13:33:33;98739.38;;;35.74;26.98
47430;BME280;33181;49.246;7.372;2022-08-23T13:36:28;98735.94;;;35.63;27.27
47430;BME280;33181;49.246;7.372;2022-08-23T13:39:04;98743.72;;;35.12;27.63
47430;BME280;33181;49.246;7.372;2022-08-23T13:41:34;98741.53;;;35.14;27.35
47430;BME280;33181;49.246;7.372;2022-08-23T13:44:06;98740.91;;;34.88;27.32
47430;BME280;33181;49.246;7.372;2022-08-23T13:46:33;98743.66;;;34.82;27.73
47430;BME280;33181;49.246;7.372;2022-08-23T13:49:09;98744.53;;;34.68;27.79
47430;BME280;33181;49.246;7.372;2022-08-23T13:51:41;98737.69;;;34.75;27.83
47430;BME280;33181;49.246;7.372;2022-08-23T13:54:13;98732.00;;;34.67;27.89
47430;BME280;33181;49.246;7.372;2022-08-23T13:57:07;98740.75;;;34.64;27.87
47430;BME280;33181;49.246;7.372;2022-08-23T13:59:52;98742.13;;;34.66;27.77
47430;BME280;33181;49.246;7.372;2022-08-23T14:02:20;98735.41;;;34.33;28.45
47430;BME280;33181;49.246;7.372;2022-08-23T14:04:47;98731.94;;;34.22;28.81
47430;BME280;33181;49.246;7.372;2022-08-23T14:07:13;98734.91;;;34.26;28.71
47430;BME280;33181;49.246;7.372;2022-08-23T14:09:40;98739.25;;;34.32;28.95
47430;BME280;33181;49.246;7.372;2022-08-23T14:12:33;98736.53;;;34.32;28.57
47430;BME280;33181;49.246;7.372;2022-08-23T14:15:02;98737.63;;;34.31;29.17
47430;BME280;33181;49.246;7.372;2022-08-23T14:17:47;98736.56;;;34.22;28.25
47430;BME280;33181;49.246;7.372;2022-08-23T14:20:16;98736.31;;;34.18;28.29
47430;BME280;33181;49.246;7.372;2022-08-23T14:22:42;98727.09;;;34.04;28.42
47430;BME280;33181;49.246;7.372;2022-08-23T14:25:09;98744.34;;;33.74;28.77
47430;BME280;33181;49.246;7.372;2022-08-23T14:27:39;98730.97;;;33.46;29.00
47430;BME280;33181;49.246;7.372;2022-08-23T14:30:07;98733.72;;;33.36;29.36
47430;BME280;33181;49.246;7.372;2022-08-23T14:32:34;98731.81;;;33.27;29.57
47430;BME280;33181;49.246;7.372;2022-08-23T14:35:00;98730.72;;;33.02;29.52
47430;BME280;33181;49.246;7.372;2022-08-23T14:37:25;98738.25;;;32.74;30.18